Afton, OK

8:25 AM CDT on July 31, 2015 (GMT -0500)
Blue Heron Cove, Patricia Island, Grove,OK | | Change Station
CLOSE
Current Station
Personal Weather Station
Location: Grove, OK
Elevation: 774 ft
Nearby Weather Stations

Elev 774 ft 36.59 °N, 94.84 °W | Updated 22 seconds ago

Rain
Rain
74.8 °F
Feels Like 76 °F
N
0.0
Wind Variable Wind from SW
Gusts 0.0 mph

Today
High -- | Low -- °F
--% Chance of Precip.
Yesterday
High -- | Low -- °F
Precip. -- in
6:24 AM 8:26 PM
Full, 100% visible
Pressure 30.19 in
Visibility 10.0 miles
Clouds Scattered Clouds 8000 ft
Heat Index 76 °F
Dew Point 67 °F
Humidity 76%
Rainfall 0.09 in
Snow Depth Not available.
UV 1 out of 12
Pollen 2.20 out of 12
Air Quality Not available.
Flu Activity Not available.
METAR KGMJ 311315Z AUTO 00000KT 10SM SCT080 23/23 A3019 RMK AO2

More Conditions Fewer Conditions

Pressure 30.19 in
Visibility 10.0 miles
Clouds Scattered Clouds 8000 ft
Heat Index 76 °F
Dew Point 67 °F
Humidity 76%
Rainfall 0.09 in
Snow Depth Not available.
UV 1 out of 12
Pollen 2.20 out of 12
Air Quality Not available.
Flu Activity Not available.
METAR KGMJ 311315Z AUTO 00000KT 10SM SCT080 23/23 A3019 RMK AO2

More Conditions Fewer Conditions

Nowcast | as of 7:23 am CDT on July 31, 2015

At 7:23 am...Doppler radars detected scattered showers across central Oklahoma...with the eastern edge of this activity catching portions of creek and Okfuskee counties. Additional isolated showers were indicated over far northeast Oklahoma and the far northwest corner of Arkansas. All of this activity was moving off to the southeast. Through 9:30 am...isolated showers will be possible across eastern Oklahoma and the northwest corner of Arkansas...mainly north of a line from Scipio Oklahoma to Huntsville Arkansas. Light to occasional moderate showers will be common...with hourly rainfall rates ranging from one tenth to one quarter inch. Some isolated locally higher amounts to one half inch are possible in heavier downpours...along with brief gusty winds.

×

10-Day Weather Forecast

×

Almanac

Astronomy

Jul. 31, 2015 Rise Set
Actual Time
Civil Twilight
Nautical Twilight
Astronomical Twilight
Moon
Length of Visible Light
Length of Day
Tomorrow will be .
, % of the Moon is Illuminated

Today's Extremes

State Highs State Lows

Community

WunderPhotos

Upload Photos

1,842,653 photos uploaded!

WunderBlogs® & News

Nearby

Air Quality

  Air Quality AQ Index Pollutant
Not available.

Snow Depth

Station Depth Elevation

Earthquake Activity

City Distance Mag. Time & Date
Minimum magnitude displayed is 2.5.

Coastal Water Temperatures

Place Temperature

Stations

Nearby Weather Stations

Station Location Temp. Windchill Dew Point Humidity Wind Precip. Elev Updated Type